Time;durP1;ratioP1;P1;durP2;ratioP2;P2;SDS_P1;SDS_P2;PMS_P1;PMS_P2;Temp;Humidity;BMP_temperature;BMP_pressure;BME280_temperature;BME280_humidity;BME280_pressure;Samples;Min_cycle;Max_cycle;Signal;HPM_P1;HPM_P2
2021/04/11 00:01:51;0.00;0.00;0.62;0.00;0.00;0.62;1.57;1.30;;;23.20;23.80;;;;;;2237363;62;20439;-62
2021/04/11 00:04:18;0.00;0.00;0.62;0.00;0.00;0.62;4.00;1.00;;;23.30;23.90;;;;;;2237481;62;20364;-63
2021/04/11 00:06:45;0.00;0.00;0.62;0.00;0.00;0.62;1.50;1.10;;;23.20;23.80;;;;;;2237584;62;20438;-62
2021/04/11 00:09:12;0.00;0.00;0.62;0.00;0.00;0.62;1.30;0.93;;;23.20;23.80;;;;;;2237257;62;20492;-64
2021/04/11 00:11:38;0.00;0.00;0.62;0.00;0.00;0.62;1.40;1.13;;;23.20;23.80;;;;;;2237353;62;20362;-63
2021/04/11 00:14:07;0.00;0.00;0.62;0.00;0.00;0.62;1.40;1.00;;;23.20;23.80;;;;;;2237514;62;20375;-61
2021/04/11 00:16:34;0.00;0.00;0.62;0.00;0.00;0.62;2.40;1.10;;;23.20;23.80;;;;;;2237192;62;20371;-61
2021/04/11 00:19:01;0.00;0.00;0.62;0.00;0.00;0.62;1.40;0.90;;;23.20;23.80;;;;;;2236962;62;20427;-63
2021/04/11 00:21:27;0.00;0.00;0.62;0.00;0.00;0.62;1.53;0.90;;;23.20;23.80;;;;;;2237510;62;20371;-63
2021/04/11 00:23:55;0.00;0.00;0.62;0.00;0.00;0.62;2.03;0.80;;;23.20;23.80;;;;;;2237246;62;20728;-63
2021/04/11 00:26:22;0.00;0.00;0.62;0.00;0.00;0.62;1.20;0.87;;;23.20;23.80;;;;;;2237632;62;20370;-64
2021/04/11 00:28:48;0.00;0.00;0.62;0.00;0.00;0.62;1.40;1.10;;;23.20;23.80;;;;;;2237763;62;20372;-64
2021/04/11 00:31:15;0.00;0.00;0.62;0.00;0.00;0.62;1.20;0.90;;;23.20;23.80;;;;;;2237651;62;20834;-62
2021/04/11 00:33:43;0.00;0.00;0.62;0.00;0.00;0.62;1.40;1.00;;;23.20;23.80;;;;;;2237798;62;20418;-63
2021/04/11 00:36:13;0.00;0.00;0.62;0.00;0.00;0.62;1.30;0.87;;;23.20;23.80;;;;;;2237562;62;20380;-63
2021/04/11 00:38:41;0.00;0.00;0.62;0.00;0.00;0.62;1.27;0.80;;;23.20;23.80;;;;;;2237703;62;20412;-61
2021/04/11 00:41:17;0.00;0.00;0.62;0.00;0.00;0.62;1.40;1.10;;;23.20;23.80;;;;;;2237765;62;20369;-64
2021/04/11 00:43:46;0.00;0.00;0.62;0.00;0.00;0.62;1.30;0.93;;;23.20;23.90;;;;;;2237657;62;20409;-61
2021/04/11 00:46:24;0.00;0.00;0.62;0.00;0.00;0.62;1.30;0.90;;;23.20;23.90;;;;;;2237290;62;20371;-64
2021/04/11 00:48:51;0.00;0.00;0.62;0.00;0.00;0.62;1.27;0.87;;;23.20;23.80;;;;;;2237350;62;20353;-62
2021/04/11 00:51:23;0.00;0.00;0.62;0.00;0.00;0.62;1.40;1.00;;;23.20;23.80;;;;;;2237125;62;20366;-62
2021/04/11 00:53:50;0.00;0.00;0.62;0.00;0.00;0.62;2.33;1.10;;;23.20;23.90;;;;;;2237588;62;20616;-63
2021/04/11 00:56:18;0.00;0.00;0.62;0.00;0.00;0.62;2.20;0.87;;;23.20;23.80;;;;;;2237542;62;20753;-57
2021/04/11 00:58:45;0.00;0.00;0.62;0.00;0.00;0.62;2.53;0.90;;;23.20;23.90;;;;;;2237697;62;20368;-61
2021/04/11 01:01:12;0.00;0.00;0.62;0.00;0.00;0.62;1.37;0.73;;;23.20;23.90;;;;;;2237051;62;20727;-62
2021/04/11 01:03:40;0.00;0.00;0.62;0.00;0.00;0.62;1.53;0.97;;;23.20;23.90;;;;;;2236952;62;20397;-66
2021/04/11 01:06:11;0.00;0.00;0.62;0.00;0.00;0.62;1.70;1.10;;;23.20;23.90;;;;;;2234010;62;20372;-67
2021/04/11 01:08:39;0.00;0.00;0.62;0.00;0.00;0.62;1.60;1.40;;;23.20;24.50;;;;;;2237110;62;20786;-64
2021/04/11 01:11:13;0.00;0.00;0.62;0.00;0.00;0.62;2.10;1.60;;;23.20;23.90;;;;;;2236848;62;20458;-64
2021/04/11 01:13:46;0.00;0.00;0.62;0.00;0.00;0.62;2.20;1.80;;;23.20;23.90;;;;;;2237326;62;20429;-64
2021/04/11 01:16:14;0.00;0.00;0.62;0.00;0.00;0.62;2.07;1.87;;;23.20;24.00;;;;;;2238304;62;20379;-65
2021/04/11 01:18:42;0.00;0.00;0.62;0.00;0.00;0.62;2.00;1.53;;;23.20;23.90;;;;;;2237998;62;20716;-66
2021/04/11 01:21:21;0.00;0.00;0.62;0.00;0.00;0.62;2.70;2.30;;;23.20;23.90;;;;;;2237790;62;20368;-67
2021/04/11 01:23:57;0.00;0.00;0.62;0.00;0.00;0.62;2.10;1.90;;;23.20;24.00;;;;;;2237791;62;20394;-64
2021/04/11 01:26:25;0.00;0.00;0.62;0.00;0.00;0.62;6.40;2.43;;;23.20;24.00;;;;;;2237570;62;20367;-66
2021/04/11 01:28:55;0.00;0.00;0.62;0.00;0.00;0.62;1.70;1.60;;;23.20;24.00;;;;;;2237938;62;20735;-64
2021/04/11 01:31:22;0.00;0.00;0.62;0.00;0.00;0.62;2.20;1.97;;;23.10;23.90;;;;;;2237746;62;20366;-62
2021/04/11 01:33:51;0.00;0.00;0.62;0.00;0.00;0.62;2.00;1.80;;;23.10;23.90;;;;;;2237375;62;20377;-65
2021/04/11 01:36:24;0.00;0.00;0.62;0.00;0.00;0.62;2.30;2.10;;;23.10;23.90;;;;;;2238080;62;20365;-64
2021/04/11 01:38:54;0.00;0.00;0.62;0.00;0.00;0.62;2.90;2.60;;;23.10;23.90;;;;;;2237797;62;20360;-63
2021/04/11 01:41:27;0.00;0.00;0.62;0.00;0.00;0.62;3.30;2.27;;;23.10;23.90;;;;;;2237672;62;20675;-65
2021/04/11 01:43:54;0.00;0.00;0.62;0.00;0.00;0.62;2.40;2.20;;;23.10;23.90;;;;;;2237963;62;20762;-65
2021/04/11 01:46:24;0.00;0.00;0.62;0.00;0.00;0.62;2.77;2.47;;;23.10;24.00;;;;;;2238366;62;20383;-63
2021/04/11 01:48:53;0.00;0.00;0.62;0.00;0.00;0.62;4.03;2.90;;;23.10;24.00;;;;;;2237299;62;20367;-61
2021/04/11 01:51:25;0.00;0.00;0.62;0.00;0.00;0.62;3.23;2.93;;;23.10;24.10;;;;;;2238282;62;20355;-64
2021/04/11 01:53:52;0.00;0.00;0.62;0.00;0.00;0.62;2.53;2.00;;;23.00;24.00;;;;;;2238094;62;20391;-64
2021/04/11 01:56:20;0.00;0.00;0.62;0.00;0.00;0.62;2.37;2.17;;;23.00;24.00;;;;;;2237406;62;20445;-64
2021/04/11 01:58:53;0.00;0.00;0.62;0.00;0.00;0.62;2.80;2.13;;;23.00;24.00;;;;;;2237930;62;20723;-62
2021/04/11 02:01:30;0.00;0.00;0.62;0.00;0.00;0.62;2.57;2.37;;;23.00;24.10;;;;;;2237683;62;20369;-63
2021/04/11 02:04:03;0.00;0.00;0.62;0.00;0.00;0.62;2.70;2.50;;;23.00;24.00;;;;;;2237297;62;20375;-66
2021/04/11 02:06:35;0.00;0.00;0.62;0.00;0.00;0.62;2.80;2.60;;;23.00;24.10;;;;;;2237791;62;20360;-61
2021/04/11 02:09:16;0.00;0.00;0.62;0.00;0.00;0.62;2.83;2.57;;;22.90;24.60;;;;;;2237944;62;20444;-68
2021/04/11 02:11:59;0.00;0.00;0.62;0.00;0.00;0.62;2.57;2.37;;;22.90;24.00;;;;;;2234494;62;20415;-66
2021/04/11 02:14:29;0.00;0.00;0.62;0.00;0.00;0.62;3.10;2.47;;;22.90;24.10;;;;;;2237687;62;20438;-65
2021/04/11 02:16:56;0.00;0.00;0.62;0.00;0.00;0.62;4.10;2.93;;;23.00;24.20;;;;;;2238267;62;20362;-64
2021/04/11 02:19:28;0.00;0.00;0.62;0.00;0.00;0.62;3.70;3.00;;;22.90;24.10;;;;;;2237734;62;20372;-63
2021/04/11 02:22:05;0.00;0.00;0.62;0.00;0.00;0.62;3.20;2.83;;;22.90;24.20;;;;;;2237580;62;20396;-63
2021/04/11 02:24:38;0.00;0.00;0.62;0.00;0.00;0.62;3.67;3.00;;;22.90;24.20;;;;;;2237866;62;20408;-63
2021/04/11 02:27:06;0.00;0.00;0.62;0.00;0.00;0.62;3.83;3.13;;;22.90;24.20;;;;;;2237157;62;20372;-66
2021/04/11 02:29:34;0.00;0.00;0.62;0.00;0.00;0.62;3.20;2.90;;;22.90;24.20;;;;;;2238219;62;20372;-65
2021/04/11 02:32:02;0.00;0.00;0.62;0.00;0.00;0.62;3.20;2.90;;;22.90;24.20;;;;;;2238319;62;20434;-67
2021/04/11 02:34:31;0.00;0.00;0.62;0.00;0.00;0.62;2.90;2.60;;;22.90;24.20;;;;;;2237248;62;20368;-64
2021/04/11 02:37:03;0.00;0.00;0.62;0.00;0.00;0.62;3.53;2.57;;;22.90;24.20;;;;;;2237686;62;20367;-66
2021/04/11 02:39:37;0.00;0.00;0.62;0.00;0.00;0.62;3.73;3.20;;;22.90;24.20;;;;;;2237603;62;20454;-63
2021/04/11 02:42:09;0.00;0.00;0.62;0.00;0.00;0.62;3.43;2.90;;;22.80;24.20;;;;;;2237954;62;20391;-64
2021/04/11 02:44:39;0.00;0.00;0.62;0.00;0.00;0.62;3.50;3.20;;;22.80;24.20;;;;;;2237854;62;20366;-64
2021/04/11 02:47:12;0.00;0.00;0.62;0.00;0.00;0.62;3.23;2.93;;;22.80;24.20;;;;;;2238007;62;20447;-65
2021/04/11 02:49:41;0.00;0.00;0.62;0.00;0.00;0.62;3.33;3.03;;;22.80;24.20;;;;;;2238044;62;20450;-62
2021/04/11 02:52:22;0.00;0.00;0.62;0.00;0.00;0.62;3.57;3.23;;;22.80;24.30;;;;;;2237532;62;20380;-66
2021/04/11 02:54:49;0.00;0.00;0.62;0.00;0.00;0.62;2.93;2.63;;;22.80;24.30;;;;;;2237459;62;20601;-67
2021/04/11 02:57:20;0.00;0.00;0.62;0.00;0.00;0.62;4.00;3.43;;;22.80;24.30;;;;;;2237503;62;20371;-66
2021/04/11 02:59:51;0.00;0.00;0.62;0.00;0.00;0.62;3.77;3.20;;;22.70;24.30;;;;;;2237545;62;20368;-64
2021/04/11 03:02:18;0.00;0.00;0.62;0.00;0.00;0.62;2.70;2.50;;;22.80;24.40;;;;;;2240358;62;20448;-63
2021/04/11 03:04:54;0.00;0.00;0.62;0.00;0.00;0.62;5.23;3.20;;;22.70;24.30;;;;;;2237534;62;20463;-65
2021/04/11 03:07:27;0.00;0.00;0.62;0.00;0.00;0.62;3.17;2.80;;;22.70;24.90;;;;;;2237514;62;20364;-65
2021/04/11 03:09:59;0.00;0.00;0.62;0.00;0.00;0.62;3.50;2.60;;;22.70;24.40;;;;;;2237271;62;20364;-65
2021/04/11 03:12:29;0.00;0.00;0.62;0.00;0.00;0.62;4.47;4.07;;;22.70;24.40;;;;;;2237663;62;20739;-62
2021/04/11 03:14:58;0.00;0.00;0.62;0.00;0.00;0.62;4.63;3.30;;;22.70;24.40;;;;;;2237450;62;20439;-63
2021/04/11 03:17:30;0.00;0.00;0.62;0.00;0.00;0.62;2.90;2.70;;;22.70;24.40;;;;;;2236953;62;20377;-62
2021/04/11 03:20:06;0.00;0.00;0.62;0.00;0.00;0.62;3.80;3.43;;;22.70;24.50;;;;;;2240979;62;20368;-65
2021/04/11 03:22:33;0.00;0.00;0.62;0.00;0.00;0.62;3.10;2.90;;;22.70;24.40;;;;;;2240643;62;20634;-64
2021/04/11 03:25:06;0.00;0.00;0.62;0.00;0.00;0.62;3.73;3.33;;;22.70;24.50;;;;;;2237014;62;20433;-64
2021/04/11 03:27:38;0.00;0.00;0.62;0.00;0.00;0.62;4.50;3.90;;;22.70;24.50;;;;;;2237607;62;20356;-63
2021/04/11 03:30:16;0.00;0.00;0.62;0.00;0.00;0.62;3.87;3.57;;;22.60;24.50;;;;;;2237914;62;20368;-66
2021/04/11 03:32:46;0.00;0.00;0.62;0.00;0.00;0.62;4.23;3.33;;;22.60;24.50;;;;;;2240166;62;20387;-68
2021/04/11 03:35:17;0.00;0.00;0.62;0.00;0.00;0.62;3.10;2.80;;;22.60;24.50;;;;;;2238115;62;20713;-63
2021/04/11 03:37:48;0.00;0.00;0.62;0.00;0.00;0.62;2.97;2.70;;;22.60;24.50;;;;;;2240693;62;20369;-64
2021/04/11 03:40:20;0.00;0.00;0.62;0.00;0.00;0.62;3.17;2.90;;;22.60;24.50;;;;;;2240147;62;20359;-66
2021/04/11 03:42:50;0.00;0.00;0.62;0.00;0.00;0.62;3.97;3.57;;;22.60;24.50;;;;;;2237867;62;20396;-62
2021/04/11 03:45:20;0.00;0.00;0.62;0.00;0.00;0.62;3.30;3.00;;;22.60;24.50;;;;;;2237622;62;20374;-66
2021/04/11 03:47:57;0.00;0.00;0.62;0.00;0.00;0.62;3.57;3.27;;;22.60;24.50;;;;;;2237421;62;20378;-66
2021/04/11 03:50:30;0.00;0.00;0.62;0.00;0.00;0.62;4.03;3.60;;;22.60;24.50;;;;;;2237511;62;20363;-63
2021/04/11 03:53:10;0.00;0.00;0.62;0.00;0.00;0.62;3.67;3.27;;;22.60;24.50;;;;;;2240850;62;20396;-62
2021/04/11 03:55:44;0.00;0.00;0.62;0.00;0.00;0.62;3.77;2.93;;;22.50;24.50;;;;;;2240227;62;20737;-62
2021/04/11 03:58:19;0.00;0.00;0.62;0.00;0.00;0.62;3.27;2.97;;;22.50;24.60;;;;;;2237352;62;20490;-61
2021/04/11 04:00:56;0.00;0.00;0.62;0.00;0.00;0.62;4.93;3.33;;;22.50;25.10;;;;;;2240807;62;20698;-65
2021/04/11 04:03:30;0.00;0.00;0.62;0.00;0.00;0.62;3.97;3.57;;;22.50;24.70;;;;;;2237872;62;20425;-64
2021/04/11 04:06:05;0.00;0.00;0.62;0.00;0.00;0.62;4.10;3.77;;;22.50;24.60;;;;;;2237321;62;20355;-62
2021/04/11 04:08:32;0.00;0.00;0.62;0.00;0.00;0.62;4.03;3.73;;;22.50;24.70;;;;;;2237160;62;20425;-63
2021/04/11 04:11:16;0.00;0.00;0.62;0.00;0.00;0.62;3.57;3.27;;;22.50;24.70;;;;;;2237268;62;20637;-65
2021/04/11 04:14:13;0.00;0.00;0.62;0.00;0.00;0.62;4.67;4.27;;;22.50;24.70;;;;;;2237155;62;20374;-67
2021/04/11 04:16:59;0.00;0.00;0.62;0.00;0.00;0.62;4.23;3.70;;;22.50;24.80;;;;;;2236928;62;20360;-63
2021/04/11 04:19:42;0.00;0.00;0.62;0.00;0.00;0.62;3.83;3.43;;;22.40;24.70;;;;;;2240761;62;20415;-61
2021/04/11 04:22:45;0.00;0.00;0.62;0.00;0.00;0.62;4.00;3.70;;;22.40;24.80;;;;;;2237420;62;20391;-63
2021/04/11 04:25:39;0.00;0.00;0.62;0.00;0.00;0.62;4.80;4.30;;;22.40;24.80;;;;;;2236949;62;20420;-62
2021/04/11 04:28:24;0.00;0.00;0.62;0.00;0.00;0.62;4.20;3.30;;;22.40;24.80;;;;;;2240366;62;20803;-63
2021/04/11 04:30:58;0.00;0.00;0.62;0.00;0.00;0.62;4.07;3.70;;;22.40;24.90;;;;;;2240268;62;20375;-64
2021/04/11 04:33:48;0.00;0.00;0.62;0.00;0.00;0.62;4.43;3.97;;;22.40;24.80;;;;;;2240410;62;20439;-65
2021/04/11 04:36:32;0.00;0.00;0.62;0.00;0.00;0.62;4.30;3.90;;;22.40;25.00;;;;;;2237797;62;20704;-62
2021/04/11 04:39:26;0.00;0.00;0.62;0.00;0.00;0.62;4.50;4.10;;;22.40;25.00;;;;;;2236788;62;20359;-66
2021/04/11 04:42:05;0.00;0.00;0.62;0.00;0.00;0.62;4.40;4.00;;;22.30;24.90;;;;;;2240381;62;20387;-65
2021/04/11 04:44:43;0.00;0.00;0.62;0.00;0.00;0.62;5.23;4.77;;;22.30;24.90;;;;;;2240745;62;20413;-62
2021/04/11 04:47:17;0.00;0.00;0.62;0.00;0.00;0.62;4.27;3.67;;;22.30;25.00;;;;;;2239926;62;20714;-62
2021/04/11 04:50:01;0.00;0.00;0.62;0.00;0.00;0.62;4.40;4.00;;;22.30;25.00;;;;;;2238392;62;20359;-61
2021/04/11 04:52:32;0.00;0.00;0.62;0.00;0.00;0.62;3.97;3.67;;;22.30;25.00;;;;;;2238587;62;20411;-63
2021/04/11 04:55:09;0.00;0.00;0.62;0.00;0.00;0.62;3.47;3.17;;;22.30;25.00;;;;;;2241303;62;20600;-65
2021/04/11 04:57:46;0.00;0.00;0.62;0.00;0.00;0.62;4.70;4.00;;;22.30;25.00;;;;;;2238552;62;20387;-64
2021/04/11 05:00:19;0.00;0.00;0.62;0.00;0.00;0.62;4.37;3.97;;;22.30;25.00;;;;;;2241498;62;20370;-64
2021/04/11 05:03:06;0.00;0.00;0.62;0.00;0.00;0.62;3.73;3.40;;;22.30;25.10;;;;;;2239029;62;20439;-65
2021/04/11 05:05:40;0.00;0.00;0.62;0.00;0.00;0.62;4.27;3.87;;;22.30;25.10;;;;;;2239080;62;20391;-63
2021/04/11 05:08:13;0.00;0.00;0.62;0.00;0.00;0.62;3.83;3.40;;;22.30;25.10;;;;;;2238229;62;20447;-65
2021/04/11 05:10:45;0.00;0.00;0.62;0.00;0.00;0.62;4.27;3.87;;;22.30;25.10;;;;;;2241767;62;20444;-65
2021/04/11 05:13:24;0.00;0.00;0.62;0.00;0.00;0.62;3.50;3.20;;;22.30;25.10;;;;;;2238408;62;20621;-64
2021/04/11 05:16:08;0.00;0.00;0.62;0.00;0.00;0.62;4.13;3.70;;;22.30;25.10;;;;;;2237922;62;20369;-63
2021/04/11 05:18:39;0.00;0.00;0.62;0.00;0.00;0.62;4.07;3.77;;;22.30;25.20;;;;;;2241923;62;20364;-67
2021/04/11 05:21:24;0.00;0.00;0.62;0.00;0.00;0.62;3.90;3.50;;;22.30;25.20;;;;;;2238357;62;20421;-64
2021/04/11 05:24:01;0.00;0.00;0.62;0.00;0.00;0.62;4.70;3.60;;;22.30;25.20;;;;;;2238046;62;20751;-63
2021/04/11 05:26:36;0.00;0.00;0.62;0.00;0.00;0.62;4.33;3.93;;;22.30;25.20;;;;;;2238439;62;20359;-62
2021/04/11 05:29:14;0.00;0.00;0.62;0.00;0.00;0.62;3.13;2.83;;;22.30;25.20;;;;;;2238661;62;20366;-65
2021/04/11 05:31:42;0.00;0.00;0.62;0.00;0.00;0.62;3.97;3.63;;;22.30;25.20;;;;;;2238378;62;20354;-62
2021/04/11 05:34:14;0.00;0.00;0.62;0.00;0.00;0.62;3.67;3.23;;;22.30;25.20;;;;;;2238854;62;20405;-63
2021/04/11 05:36:55;0.00;0.00;0.62;0.00;0.00;0.62;4.27;3.50;;;22.30;25.20;;;;;;2239114;62;20442;-62
2021/04/11 05:39:42;0.00;0.00;0.62;0.00;0.00;0.62;3.93;3.53;;;22.30;25.20;;;;;;2238053;62;20379;-63
2021/04/11 05:42:18;0.00;0.00;0.62;0.00;0.00;0.62;4.20;3.07;;;22.30;25.20;;;;;;2238675;62;20397;-62
2021/04/11 05:44:51;0.00;0.00;0.62;0.00;0.00;0.62;4.40;3.67;;;22.30;25.20;;;;;;2238276;62;20367;-66
2021/04/11 05:47:27;0.00;0.00;0.62;0.00;0.00;0.62;4.33;3.93;;;22.30;25.30;;;;;;2238365;62;20363;-66
2021/04/11 05:49:59;0.00;0.00;0.62;0.00;0.00;0.62;4.10;3.70;;;22.30;25.90;;;;;;2238727;62;20451;-63
2021/04/11 05:52:32;0.00;0.00;0.62;0.00;0.00;0.62;3.83;3.53;;;22.30;25.30;;;;;;2238548;62;20382;-63
2021/04/11 05:55:02;0.00;0.00;0.62;0.00;0.00;0.62;4.03;3.63;;;22.20;25.30;;;;;;2238848;62;20591;-66
2021/04/11 05:57:35;0.00;0.00;0.62;0.00;0.00;0.62;3.80;3.50;;;22.20;25.20;;;;;;2238895;62;20412;-67
2021/04/11 06:00:07;0.00;0.00;0.62;0.00;0.00;0.62;5.00;4.03;;;22.20;25.20;;;;;;2238397;62;20363;-67
2021/04/11 06:02:43;0.00;0.00;0.62;0.00;0.00;0.62;4.60;4.20;;;22.30;25.30;;;;;;2237822;62;20395;-62
2021/04/11 06:05:17;0.00;0.00;0.62;0.00;0.00;0.62;4.20;3.80;;;22.20;25.30;;;;;;2238292;62;20412;-65
2021/04/11 06:07:51;0.00;0.00;0.62;0.00;0.00;0.62;4.27;3.87;;;22.20;25.30;;;;;;2237744;62;20363;-66
2021/04/11 06:10:23;0.00;0.00;0.62;0.00;0.00;0.62;4.83;3.90;;;22.20;25.40;;;;;;2238342;62;20404;-64
2021/04/11 06:12:57;0.00;0.00;0.62;0.00;0.00;0.62;3.67;3.30;;;22.20;25.40;;;;;;2238238;62;20382;-63
2021/04/11 06:15:29;0.00;0.00;0.62;0.00;0.00;0.62;5.20;3.27;;;22.20;25.40;;;;;;2237768;62;20371;-64
2021/04/11 06:17:58;0.00;0.00;0.62;0.00;0.00;0.62;4.37;3.97;;;22.20;25.40;;;;;;2238455;62;20389;-63
2021/04/11 06:20:27;0.00;0.00;0.62;0.00;0.00;0.62;4.17;3.40;;;22.20;25.40;;;;;;2237813;62;20375;-67
2021/04/11 06:23:04;0.00;0.00;0.62;0.00;0.00;0.62;5.80;4.03;;;22.20;25.40;;;;;;2237605;62;20445;-64
2021/04/11 06:25:39;0.00;0.00;0.62;0.00;0.00;0.62;4.97;3.80;;;22.20;25.50;;;;;;2238318;62;20381;-64
2021/04/11 06:28:14;0.00;0.00;0.62;0.00;0.00;0.62;3.80;3.40;;;22.20;25.40;;;;;;2238333;62;20367;-62
2021/04/11 06:30:51;0.00;0.00;0.62;0.00;0.00;0.62;4.60;4.00;;;22.20;25.40;;;;;;2237057;62;20363;-61
2021/04/11 06:33:24;0.00;0.00;0.62;0.00;0.00;0.62;3.77;3.30;;;22.20;25.50;;;;;;2238058;62;20486;-63
2021/04/11 06:35:57;0.00;0.00;0.62;0.00;0.00;0.62;3.70;3.13;;;22.20;25.50;;;;;;2238333;62;20425;-61
2021/04/11 06:38:29;0.00;0.00;0.62;0.00;0.00;0.62;3.83;3.40;;;22.20;25.60;;;;;;2237664;62;20369;-62
2021/04/11 06:41:19;0.00;0.00;0.62;0.00;0.00;0.62;4.10;3.70;;;22.10;25.50;;;;;;2238085;62;20364;-62
2021/04/11 06:44:33;0.00;0.00;0.62;0.00;0.00;0.62;3.97;3.57;;;22.20;26.10;;;;;;2238150;62;20391;-63
2021/04/11 06:47:18;0.00;0.00;0.62;0.00;0.00;0.62;5.20;4.37;;;22.10;25.50;;;;;;2233914;62;20379;-65
2021/04/11 06:50:08;0.00;0.00;0.62;0.00;0.00;0.62;2.70;2.50;;;22.10;25.50;;;;;;2238005;62;20371;-64
2021/04/11 06:53:17;0.00;0.00;0.62;0.00;0.00;0.62;4.03;3.30;;;22.10;25.60;;;;;;2237464;62;20400;-65
2021/04/11 06:56:08;0.00;0.00;0.62;0.00;0.00;0.62;3.37;3.07;;;22.10;25.60;;;;;;2233023;62;20372;-62
2021/04/11 06:58:46;0.00;0.00;0.62;0.00;0.00;0.62;4.70;3.70;;;22.10;25.50;;;;;;2236930;62;20370;-67
2021/04/11 07:01:40;0.00;0.00;0.62;0.00;0.00;0.62;3.47;3.10;;;22.10;25.60;;;;;;2237979;62;20450;-65
2021/04/11 07:05:04;0.00;0.00;0.62;0.00;0.00;0.62;3.07;2.77;;;22.10;25.60;;;;;;2238062;62;20411;-62
2021/04/11 07:08:25;0.00;0.00;0.62;0.00;0.00;0.62;3.60;2.60;;;22.10;25.60;;;;;;2222568;62;20377;-63
2021/04/11 07:11:49;0.00;0.00;0.62;0.00;0.00;0.62;4.50;3.10;;;22.10;25.60;;;;;;2240627;62;20364;-64
2021/04/11 07:14:48;0.00;0.00;0.62;0.00;0.00;0.62;2.80;2.60;;;22.10;25.60;;;;;;2236876;62;20435;-65
2021/04/11 07:18:03;0.00;0.00;0.62;0.00;0.00;0.62;3.20;2.73;;;22.10;25.70;;;;;;2238217;62;20364;-65
2021/04/11 07:21:21;0.00;0.00;0.62;0.00;0.00;0.62;3.33;3.03;;;22.10;25.70;;;;;;2238012;62;20371;-66
2021/04/11 07:24:23;0.00;0.00;0.62;0.00;0.00;0.62;3.00;2.70;;;22.10;25.70;;;;;;2225326;62;20414;-66
2021/04/11 07:26:59;0.00;0.00;0.62;0.00;0.00;0.62;3.67;3.00;;;22.10;25.70;;;;;;2237929;62;20397;-63
2021/04/11 07:29:53;0.00;0.00;0.62;0.00;0.00;0.62;2.77;2.50;;;22.10;25.80;;;;;;2237474;62;20677;-63
2021/04/11 07:33:05;0.00;0.00;0.62;0.00;0.00;0.62;3.80;3.37;;;22.10;25.80;;;;;;2237900;62;20387;-65
2021/04/11 07:35:44;0.00;0.00;0.62;0.00;0.00;0.62;3.03;2.47;;;22.10;25.80;;;;;;2237886;62;20364;-63
2021/04/11 07:38:35;0.00;0.00;0.62;0.00;0.00;0.62;3.57;3.17;;;22.10;25.90;;;;;;2238003;62;20709;-62
2021/04/11 07:41:42;0.00;0.00;0.62;0.00;0.00;0.62;4.13;3.40;;;22.10;25.80;;;;;;2237795;62;20363;-65
2021/04/11 07:44:34;0.00;0.00;0.62;0.00;0.00;0.62;3.90;3.50;;;22.10;25.90;;;;;;2237273;62;20402;-64
2021/04/11 07:47:28;0.00;0.00;0.62;0.00;0.00;0.62;5.00;3.90;;;22.10;25.90;;;;;;2237952;62;20373;-62
2021/04/11 07:50:33;0.00;0.00;0.62;0.00;0.00;0.62;3.73;3.40;;;22.10;25.90;;;;;;2238054;62;20714;-64
2021/04/11 07:53:45;0.00;0.00;0.62;0.00;0.00;0.62;4.73;4.27;;;22.10;25.90;;;;;;2237623;62;20394;-62
2021/04/11 07:56:23;0.00;0.00;0.62;0.00;0.00;0.62;5.10;3.53;;;22.10;26.00;;;;;;2237178;62;20385;-62
2021/04/11 07:59:06;0.00;0.00;0.62;0.00;0.00;0.62;5.93;3.13;;;22.10;26.00;;;;;;2237385;62;20368;-63
2021/04/11 08:02:17;0.00;0.00;0.62;0.00;0.00;0.62;3.87;3.47;;;22.10;26.10;;;;;;2238050;62;20814;-66
2021/04/11 08:05:57;0.00;0.00;0.62;0.00;0.00;0.62;3.73;3.20;;;22.10;26.00;;;;;;2240837;62;20571;-65
2021/04/11 08:08:44;0.00;0.00;0.62;0.00;0.00;0.62;4.57;3.60;;;22.10;26.10;;;;;;2228882;62;20363;-62
2021/04/11 08:12:10;0.00;0.00;0.62;0.00;0.00;0.62;3.73;3.37;;;22.20;26.20;;;;;;2238036;62;20575;-66
2021/04/11 08:14:48;0.00;0.00;0.62;0.00;0.00;0.62;4.00;3.60;;;22.20;26.30;;;;;;2237161;62;20455;-66
2021/04/11 08:17:39;0.00;0.00;0.62;0.00;0.00;0.62;3.67;3.00;;;22.20;26.20;;;;;;2237282;62;20723;-68
2021/04/11 08:20:37;0.00;0.00;0.62;0.00;0.00;0.62;3.37;3.07;;;22.20;26.30;;;;;;2237666;62;20375;-62
2021/04/11 08:23:28;0.00;0.00;0.62;0.00;0.00;0.62;3.97;2.90;;;22.20;26.40;;;;;;2237531;62;20840;-63
2021/04/11 08:26:11;0.00;0.00;0.62;0.00;0.00;0.62;5.30;3.00;;;22.20;26.30;;;;;;2237857;62;20632;-62
2021/04/11 08:29:20;0.00;0.00;0.62;0.00;0.00;0.62;3.70;3.30;;;22.20;26.40;;;;;;2237456;62;20702;-61
2021/04/11 08:32:38;0.00;0.00;0.62;0.00;0.00;0.62;3.17;2.87;;;22.20;26.30;;;;;;2236653;62;20380;-65
2021/04/11 08:35:39;0.00;0.00;0.62;0.00;0.00;0.62;3.17;2.20;;;22.20;26.40;;;;;;2237217;62;20364;-62
2021/04/11 08:38:59;0.00;0.00;0.62;0.00;0.00;0.62;5.23;2.63;;;22.30;26.40;;;;;;2237857;62;20371;-60
2021/04/11 08:42:05;0.00;0.00;0.62;0.00;0.00;0.62;3.33;2.77;;;22.30;26.40;;;;;;2237572;62;20360;-62
2021/04/11 08:44:44;0.00;0.00;0.62;0.00;0.00;0.62;3.40;2.73;;;22.30;26.50;;;;;;2236868;62;20696;-65
2021/04/11 08:47:25;0.00;0.00;0.62;0.00;0.00;0.62;3.10;2.50;;;22.30;26.50;;;;;;2237584;62;20387;-63
2021/04/11 08:49:58;0.00;0.00;0.62;0.00;0.00;0.62;2.07;1.87;;;22.30;26.60;;;;;;2237803;62;20360;-63
2021/04/11 08:52:42;0.00;0.00;0.62;0.00;0.00;0.62;2.53;2.13;;;22.30;26.50;;;;;;2236870;62;20387;-65
2021/04/11 08:55:24;0.00;0.00;0.62;0.00;0.00;0.62;3.27;2.33;;;22.30;26.40;;;;;;2237016;62;20372;-66
2021/04/11 08:58:06;0.00;0.00;0.62;0.00;0.00;0.62;2.90;2.40;;;22.30;26.40;;;;;;2237165;62;20386;-63
2021/04/11 09:00:42;0.00;0.00;0.62;0.00;0.00;0.62;4.60;2.90;;;22.30;26.40;;;;;;2237280;62;20614;-63
2021/04/11 09:03:28;0.00;0.00;0.62;0.00;0.00;0.62;4.53;3.30;;;22.30;26.50;;;;;;2237040;62;20384;-65
2021/04/11 09:06:05;0.00;0.00;0.62;0.00;0.00;0.62;5.23;3.30;;;22.40;26.80;;;;;;2237003;62;20787;-62
2021/04/11 09:08:36;0.00;0.00;0.62;0.00;0.00;0.62;4.87;3.47;;;22.40;26.90;;;;;;2237210;62;20358;-64
2021/04/11 09:11:27;0.00;0.00;0.62;0.00;0.00;0.62;3.50;2.93;;;22.40;27.00;;;;;;2237321;62;20366;-63
2021/04/11 09:14:38;0.00;0.00;0.62;0.00;0.00;0.62;7.13;2.73;;;22.40;27.20;;;;;;2237148;62;20515;-64
2021/04/11 09:17:20;0.00;0.00;0.62;0.00;0.00;0.62;2.93;2.57;;;22.40;27.10;;;;;;2237015;62;20410;-64
2021/04/11 09:20:01;0.00;0.00;0.62;0.00;0.00;0.62;2.93;2.30;;;22.40;27.20;;;;;;2237285;62;20360;-64
2021/04/11 09:22:47;0.00;0.00;0.62;0.00;0.00;0.62;3.10;2.17;;;22.40;27.30;;;;;;2236696;62;20764;-63
2021/04/11 09:25:19;0.00;0.00;0.62;0.00;0.00;0.62;2.23;2.03;;;22.40;27.30;;;;;;2237344;62;20366;-62
2021/04/11 09:28:13;0.00;0.00;0.62;0.00;0.00;0.62;2.60;1.90;;;22.40;27.40;;;;;;2237315;62;20454;-65
2021/04/11 09:31:25;0.00;0.00;0.62;0.00;0.00;0.62;3.30;2.03;;;22.40;27.50;;;;;;2237349;62;20359;-65
2021/04/11 09:34:31;0.00;0.00;0.62;0.00;0.00;0.62;4.70;1.90;;;22.40;27.40;;;;;;2237313;62;20480;-62
2021/04/11 09:37:20;0.00;0.00;0.62;0.00;0.00;0.62;1.70;1.50;;;22.40;27.30;;;;;;2237865;62;20363;-63
2021/04/11 09:40:18;0.00;0.00;0.62;0.00;0.00;0.62;3.63;1.90;;;22.50;27.40;;;;;;2237872;62;20360;-61
2021/04/11 09:43:17;0.00;0.00;0.62;0.00;0.00;0.62;2.43;1.90;;;22.50;27.20;;;;;;2236541;62;20395;-64
2021/04/11 09:45:59;0.00;0.00;0.62;0.00;0.00;0.62;2.30;1.87;;;22.40;27.10;;;;;;2237817;62;20645;-67
2021/04/11 09:49:07;0.00;0.00;0.62;0.00;0.00;0.62;2.60;1.83;;;22.40;27.10;;;;;;2237989;62;20366;-67
2021/04/11 09:52:02;0.00;0.00;0.62;0.00;0.00;0.62;2.47;1.83;;;22.40;27.20;;;;;;2238229;62;20372;-65
2021/04/11 09:54:40;0.00;0.00;0.62;0.00;0.00;0.62;2.00;1.33;;;22.40;27.30;;;;;;2238296;62;20604;-67
2021/04/11 09:57:23;0.00;0.00;0.62;0.00;0.00;0.62;2.67;1.60;;;22.40;27.30;;;;;;2238334;62;20371;-65
2021/04/11 10:00:06;0.00;0.00;0.62;0.00;0.00;0.62;2.47;1.20;;;22.50;27.50;;;;;;2238787;62;20364;-63
2021/04/11 10:02:54;0.00;0.00;0.62;0.00;0.00;0.62;2.30;1.43;;;22.50;27.50;;;;;;2238534;62;20399;-64
2021/04/11 10:05:31;0.00;0.00;0.62;0.00;0.00;0.62;1.80;1.27;;;22.50;27.50;;;;;;2238530;62;20703;-64
2021/04/11 10:08:32;0.00;0.00;0.62;0.00;0.00;0.62;1.80;1.30;;;22.40;27.40;;;;;;2238678;62;20377;-62
2021/04/11 10:11:23;0.00;0.00;0.62;0.00;0.00;0.62;1.80;1.30;;;22.50;27.50;;;;;;2237778;62;20371;-60
2021/04/11 10:14:23;0.00;0.00;0.62;0.00;0.00;0.62;2.17;1.43;;;22.50;27.40;;;;;;2237503;62;20474;-62
2021/04/11 10:17:01;0.00;0.00;0.62;0.00;0.00;0.62;1.80;1.50;;;22.50;27.50;;;;;;2236289;62;20585;-63
2021/04/11 10:19:40;0.00;0.00;0.62;0.00;0.00;0.62;1.80;1.30;;;22.40;27.40;;;;;;2238280;62;20367;-67
2021/04/11 10:22:25;0.00;0.00;0.62;0.00;0.00;0.62;1.73;1.60;;;22.40;27.40;;;;;;2238315;62;20394;-66
2021/04/11 10:25:06;0.00;0.00;0.62;0.00;0.00;0.62;2.00;1.50;;;22.40;27.50;;;;;;2238429;62;20368;-64
2021/04/11 10:27:40;0.00;0.00;0.62;0.00;0.00;0.62;2.10;1.90;;;22.40;27.50;;;;;;2238296;62;20360;-65
2021/04/11 10:30:11;0.00;0.00;0.62;0.00;0.00;0.62;2.43;2.23;;;22.50;27.50;;;;;;2238217;62;20370;-63
2021/04/11 10:32:46;0.00;0.00;0.62;0.00;0.00;0.62;3.07;2.60;;;22.50;27.40;;;;;;2238305;62;20583;-64